Wisconsin Dells, Wisconsin
Current Conditions -  °F | °C
As of 10:55 PM on Friday 24 Oct 2014 (Local Time) from KDLL Reporting Station
Haze Haze  
Wind Chill: 56°   Ceiling: 2500
Heat Index: 56°   Visibility: 4mi
Dew Point: 53°   Wind: 5mph
Humidity: 89%   Direction: 240°WSW
Pressure: 29.89"   Gusts: NA
Location:  43.63°N, 89.77°W
Report Text: KDLL 250355Z AUTO 24004KT 4SM BR SCT009 BKN025 14/12 A2989 RMK AO2 T01350118
Loading
Personal Weather Stations






























Interactive Weather Map
Tropical Storm Tracking
New forecast layout! Learn more

10-Day Weather Forecast

Advertisements
Track Severe Weather on mobile